首页
METAR-TAF:

METAR-TAF

机场 :

卡斯尔加, 不列颠哥伦比亚, 加拿大

纬度: 49-18N, 经度: 117-38W, 海拔: 495米

当前天气观测

该预报发布于7小时和9分钟前的04:00 UTC
风速3节,风向北转东北,在东北之间变化
温度 10°C
湿度 27%
气压 1023 hPa
能見度: 24.1公里
少量云层高于22000英尺

METAR: CYCG 090400Z 03003KT 350V050 15SM FEW220 10/M08 A3021 RMK CI2 LAST STFD OBS/NEXT 091300Z SLP242

时间: 04:09 (11:09 UTC)

预报

该预报发布于10小时和31分钟前的00:38 UTC
预报有效从09日的 01点(UTC)到 09日的 04点(UTC)
风速10节,风向
能見度: 10公里
散云层高于25000英尺

TAF: CYCG 090038Z 0901/0904 35010KT P6SM SCT250 RMK NXT FCST WILL BE ISSUED AT 091445Z

超过4000个机场的气象观测和天气预报(METAR&TAF报告)。

可查询的气象台以黄色和红色小点在地图上表示。

将鼠标移到小点上方,可查看气象台名称。

然后点击查看天气观测和预报。

如需切换地图:点击带黑十字的绿色按钮放大地图;点击带横线的绿色按钮缩小地图;或者点击绿色箭头查看邻近地区的地图。


METAR-TAF: